BWG - Bowling Green Warren County Rgnl

Pirep is a free, collaborative database of all public and private airports located within the United States. All pilots are welcome to contribute, edit, and improve any airport they have local knowledge about, no registration required.
Uploaded photos will be licensed under a CC BY-SA 4.0 license. Please only upload photos you have the rights to use.
Tags
Public
Food
METAR / TAF
Edit Tags
Camping
Lodging
Car Rental
Bicycles
Swimming
Golfing
Fishing
Hot Springs
Museum
Flying Clubs
Airpark
Upcoming Events
No upcoming events. Is anything happening here soon?
*
*
*

Where exactly on/near the airport is this event taking place?

Is there a webpage with more information for this event?

Who should be contacted for more information?

What is this event all about?

Repeat every
Description
Last updated: 2023-12-12 00:56:47 CST
Transient Parking
Fuel Location
Landing & Tie-down Fees
Crew Car Availability
Last updated: 2023-03-31 11:05:53 CDT
Flying Clubs
WiFi Access
Airport Statistics
Location: Bowling Green, KY
Elevation: 547ft
Sectional: St Louis
Activation date: Apr 1940
Fuel: 100LL, A (prices)
Runway 03/21: 6,501ft
Runway 12/30: 3,956ft
Access: Open to the public
Current Weather — VFR
  • Weather data is strictly informational and not for flight planning purposes.
  • METAR
    2024-05-26 05:53:00 CDT
    Ceiling Wind Temperature Dewpoint Weather Visbility
    Sky clear Calm 69°F 66°F N/A 8SM
    Raw: KBWG 261053Z AUTO 00000KT 8SM CLR 21/19 A2980 RMK AO2 SLP086 T02110194
  • TAF
    2024-05-26 01:00:00 CDT – 2024-05-26 09:00:00 CDT
    Ceiling Wind Weather Visbility
    25,000ft Variable N/A 6SM
    Clouds: Broken @ 25,000ft
    Raw: KBWG 260520Z 2606/2706 VRB03KT P6SM BKN250 FM261400 19012G18KT 6SM -SHRA VCTS BKN060CB PROB30 2614/2616 2SM TSRA FM261700 18012G18KT P6SM SCT100 BKN250 FM270200 19011KT P6SM VCTS SCT025CB BKN070
  • TAF
    2024-05-26 09:00:00 CDT – 2024-05-26 12:00:00 CDT
    Ceiling Wind Weather Visbility
    6,000ft 190° @ 12kt, gusts 18kt Light rain showers, thunderstorm in vicinity 6SM
    Clouds: Broken @ 6,000ft
    Raw: KBWG 260520Z 2606/2706 VRB03KT P6SM BKN250 FM261400 19012G18KT 6SM -SHRA VCTS BKN060CB PROB30 2614/2616 2SM TSRA FM261700 18012G18KT P6SM SCT100 BKN250 FM270200 19011KT P6SM VCTS SCT025CB BKN070
  • TAF
    2024-05-26 09:00:00 CDT – 2024-05-26 11:00:00 CDT
    Ceiling Wind Weather Visbility
    Sky clear ° @ kt Thunderstorm rain 2SM
    Raw: KBWG 260520Z 2606/2706 VRB03KT P6SM BKN250 FM261400 19012G18KT 6SM -SHRA VCTS BKN060CB PROB30 2614/2616 2SM TSRA FM261700 18012G18KT P6SM SCT100 BKN250 FM270200 19011KT P6SM VCTS SCT025CB BKN070
  • TAF
    2024-05-26 12:00:00 CDT – 2024-05-26 21:00:00 CDT
    Ceiling Wind Weather Visbility
    25,000ft 180° @ 12kt, gusts 18kt N/A 6SM
    Clouds: Scattered @ 10,000ft, Broken @ 25,000ft
    Raw: KBWG 260520Z 2606/2706 VRB03KT P6SM BKN250 FM261400 19012G18KT 6SM -SHRA VCTS BKN060CB PROB30 2614/2616 2SM TSRA FM261700 18012G18KT P6SM SCT100 BKN250 FM270200 19011KT P6SM VCTS SCT025CB BKN070
  • TAF
    2024-05-26 21:00:00 CDT – 2024-05-27 01:00:00 CDT
    Ceiling Wind Weather Visbility
    7,000ft 190° @ 11kt Thunderstorm in vicinity 6SM
    Clouds: Scattered @ 2,500ft, Broken @ 7,000ft
    Raw: KBWG 260520Z 2606/2706 VRB03KT P6SM BKN250 FM261400 19012G18KT 6SM -SHRA VCTS BKN060CB PROB30 2614/2616 2SM TSRA FM261700 18012G18KT P6SM SCT100 BKN250 FM270200 19011KT P6SM VCTS SCT025CB BKN070
Click/tap to add an annotation marker to the map
Airport Webcams
No webcams added yet.
Direct links to live image URLs will be displayed inline on this page. URLs to separate webpages will be linked to.
URL:
Direct links to live image URLs will be displayed inline on this page. URLs to separate webpages will be linked to.
URL:
Remarks
  • Existed prior to 1959.
  • Ops with more than 30 pax seats 24 hr ppr - amgr.
  • Birds on & invof arpt.
  • Cnl ifr - louisville fss 122.2.
  • For cd ctc memphis artcc at 901-368-8453/8449.
  • Bwg rwy 03/21 apch end safety areas contain irregular sfc.
  • Actvt reil rwy 03 & 21; hirl rwy 03/21 - ctaf.
  • Longl & transverse cracking; uneven sfc.
Comments
Leave a comment What was your experience like at this airport?